Time;durP1;ratioP1;P1;durP2;ratioP2;P2;SDS_P1;SDS_P2;PMS_P1;PMS_P2;Temp;Humidity;BMP_temperature;BMP_pressure;BME280_temperature;BME280_humidity;BME280_pressure;Samples;Min_cycle;Max_cycle;Signal;HPM_P1;HPM_P2
2024/03/23 00:06:59;;;;;;;17.48;9.68;;;4.10;99.90;;;;;;20653715;28;20499;-40
2024/03/23 00:17:02;;;;;;;15.38;9.07;;;4.00;99.90;;;;;;20795398;28;20045;-39
2024/03/23 00:27:04;;;;;;;18.40;9.93;;;3.90;99.90;;;;;;20888352;28;20029;-39
2024/03/23 00:37:07;;;;;;;19.55;11.25;;;4.00;99.90;;;;;;20904955;28;20052;-38
2024/03/23 00:47:10;;;;;;;23.02;13.00;;;4.00;99.90;;;;;;20881883;28;20488;-39
2024/03/23 00:57:15;;;;;;;28.35;13.32;;;4.00;99.90;;;;;;20905365;28;20048;-39
2024/03/23 01:07:16;;;;;;;24.30;13.23;;;4.00;99.90;;;;;;20903635;28;20041;-39
2024/03/23 01:17:21;;;;;;;32.22;16.63;;;3.80;99.90;;;;;;20870475;28;20042;-39
2024/03/23 01:27:23;;;;;;;33.15;16.85;;;3.60;99.90;;;;;;20888214;28;20476;-39
2024/03/23 01:37:24;;;;;;;32.58;17.27;;;3.50;99.90;;;;;;20885815;28;20489;-39
2024/03/23 01:47:26;;;;;;;37.08;19.50;;;3.50;99.90;;;;;;20897674;28;20063;-39
2024/03/23 01:57:28;;;;;;;37.15;18.33;;;3.70;99.90;;;;;;20902626;28;20056;-39
2024/03/23 02:07:30;;;;;;;41.92;19.58;;;3.80;99.90;;;;;;20884378;28;20033;-40
2024/03/23 02:17:35;;;;;;;44.67;22.98;;;3.80;99.90;;;;;;20885449;28;20029;-39
2024/03/23 02:27:38;;;;;;;38.75;19.30;;;4.10;99.90;;;;;;20916272;28;20091;-39
2024/03/23 02:37:40;;;;;;;40.33;19.95;;;4.20;99.90;;;;;;20915792;28;20041;-40
2024/03/23 02:47:42;;;;;;;41.17;19.83;;;4.40;99.90;;;;;;20895940;28;20094;-40
2024/03/23 02:57:44;;;;;;;41.50;21.42;;;4.30;99.90;;;;;;20894308;28;20369;-39
2024/03/23 03:07:49;;;;;;;44.80;22.02;;;4.30;99.90;;;;;;20859481;28;20242;-39
2024/03/23 03:17:51;;;;;;;40.22;19.83;;;4.30;99.90;;;;;;20844290;28;20029;-39
2024/03/23 03:27:53;;;;;;;43.22;21.05;;;4.70;99.90;;;;;;20899805;28;20028;-39
2024/03/23 03:37:54;;;;;;;45.78;21.67;;;4.30;99.90;;;;;;20910423;28;20052;-40
2024/03/23 03:47:56;;;;;;;43.17;20.95;;;4.00;99.90;;;;;;20904489;28;20032;-39
2024/03/23 03:57:58;;;;;;;45.78;21.33;;;4.20;99.90;;;;;;20909079;28;20476;-39
2024/03/23 04:08:00;;;;;;;42.38;21.13;;;4.00;99.90;;;;;;20891322;28;20033;-39
2024/03/23 04:18:02;;;;;;;52.10;22.40;;;4.30;99.90;;;;;;20908499;28;20029;-40
2024/03/23 04:28:04;;;;;;;43.47;21.13;;;4.30;99.90;;;;;;20906014;28;20044;-39
2024/03/23 04:38:06;;;;;;;36.10;18.83;;;4.50;99.90;;;;;;20906484;28;20049;-40
2024/03/23 04:48:08;;;;;;;15.90;8.27;;;5.80;99.90;;;;;;20883189;28;20045;-39
2024/03/23 04:58:09;;;;;;;12.98;7.40;;;6.80;99.90;;;;;;20895961;28;20036;-40
2024/03/23 05:08:12;;;;;;;11.52;6.95;;;7.10;99.90;;;;;;20904158;28;20090;-39
2024/03/23 05:18:14;;;;;;;14.45;7.32;;;7.40;99.90;;;;;;20818641;28;20465;-40
2024/03/23 05:28:16;;;;;;;14.93;6.68;;;7.40;99.90;;;;;;20895790;28;20029;-40
2024/03/23 05:38:18;;;;;;;11.20;5.85;;;7.00;99.90;;;;;;20903490;28;20041;-39
2024/03/23 05:48:20;;;;;;;21.88;11.32;;;7.00;99.90;;;;;;20898310;28;20055;-41
2024/03/23 05:58:22;;;;;;;13.13;6.40;;;7.20;99.90;;;;;;20915193;28;20106;-39
2024/03/23 06:08:24;;;;;;;10.25;5.15;;;6.90;99.90;;;;;;20917458;28;20029;-40
2024/03/23 06:18:26;;;;;;;9.70;5.78;;;7.30;99.90;;;;;;20915460;28;20480;-40
2024/03/23 06:28:28;;;;;;;18.08;9.65;;;7.60;99.90;;;;;;20885076;28;20323;-43
2024/03/23 06:38:30;;;;;;;13.10;7.05;;;8.00;99.90;;;;;;20842667;28;20056;-41
2024/03/23 06:48:32;;;;;;;11.30;6.40;;;8.40;99.90;;;;;;20830337;28;20041;-41
2024/03/23 06:58:34;;;;;;;15.35;6.53;;;8.80;99.90;;;;;;20830543;28;20038;-44
2024/03/23 07:08:36;;;;;;;11.13;6.70;;;8.90;99.90;;;;;;20829346;28;20087;-41
2024/03/23 07:18:38;;;;;;;13.95;7.03;;;8.90;99.90;;;;;;20812749;28;20079;-41
2024/03/23 07:28:43;;;;;;;10.88;6.65;;;9.40;99.90;;;;;;20829117;28;20030;-39
2024/03/23 07:38:48;;;;;;;9.52;5.38;;;9.50;99.90;;;;;;20867199;28;20091;-40
2024/03/23 07:48:50;;;;;;;9.10;5.40;;;9.30;99.90;;;;;;20842842;28;20036;-39
2024/03/23 07:58:52;;;;;;;12.27;7.15;;;9.30;99.90;;;;;;20850490;28;20079;-40
2024/03/23 08:09:00;;;;;;;13.50;8.15;;;9.50;99.90;;;;;;20879062;28;20029;-40
2024/03/23 08:19:03;;;;;;;16.13;8.85;;;9.50;99.90;;;;;;20890278;28;20110;-42
2024/03/23 08:29:05;;;;;;;10.77;5.68;;;9.60;99.90;;;;;;20841399;28;20092;-41
2024/03/23 08:39:07;;;;;;;8.70;5.05;;;9.50;99.90;;;;;;20775891;28;20454;-42
2024/03/23 08:49:08;;;;;;;12.27;7.10;;;9.10;99.90;;;;;;20744098;28;20042;-40
2024/03/23 08:59:10;;;;;;;15.68;10.13;;;9.10;99.90;;;;;;20764464;28;20030;-40
2024/03/23 09:09:12;;;;;;;14.55;9.18;;;9.30;99.90;;;;;;20809791;28;20396;-42
2024/03/23 09:19:14;;;;;;;24.85;13.10;;;9.40;99.90;;;;;;20748727;28;20030;-40
2024/03/23 09:29:15;;;;;;;21.42;12.65;;;10.20;99.90;;;;;;20796269;28;20033;-41
2024/03/23 09:39:18;;;;;;;19.38;11.27;;;12.40;99.90;;;;;;20813319;28;20049;-41
2024/03/23 09:49:19;;;;;;;14.02;8.93;;;13.50;99.90;;;;;;20762064;28;20065;-41
2024/03/23 09:59:21;;;;;;;19.75;11.65;;;14.70;99.90;;;;;;20915774;28;20102;-41
2024/03/23 10:09:26;;;;;;;19.83;13.23;;;15.00;99.90;;;;;;20876450;28;20036;-41
2024/03/23 10:19:31;;;;;;;24.25;14.70;;;15.50;99.90;;;;;;20913876;28;20038;-42
2024/03/23 10:29:33;;;;;;;21.08;13.45;;;15.70;99.90;;;;;;20833999;28;20040;-43
2024/03/23 10:39:40;;;;;;;20.98;13.85;;;16.50;99.90;;;;;;20907094;28;20045;-45
2024/03/23 10:49:43;;;;;;;23.40;14.68;;;15.10;99.90;;;;;;20882657;28;20021;-43
2024/03/23 10:59:46;;;;;;;21.75;13.90;;;15.50;99.90;;;;;;20836912;28;20088;-47
2024/03/23 11:09:50;;;;;;;20.45;13.15;;;15.60;99.90;;;;;;20824964;28;20045;-44
2024/03/23 11:19:58;;;;;;;18.13;12.80;;;16.90;99.90;;;;;;20817826;28;20033;-42
2024/03/23 11:30:15;;;;;;;17.83;10.77;;;16.70;99.20;;;;;;20826923;28;20087;-42
2024/03/23 11:40:19;;;;;;;15.38;10.07;;;16.40;98.40;;;;;;20859508;28;20049;-48
2024/03/23 11:50:21;;;;;;;18.65;11.82;;;16.50;97.80;;;;;;20787783;28;20034;-42
2024/03/23 12:00:23;;;;;;;18.58;12.98;;;16.70;98.40;;;;;;20785600;28;20029;-41
2024/03/23 12:10:25;;;;;;;21.77;13.13;;;14.30;99.90;;;;;;20769682;28;20029;-42
2024/03/23 12:20:27;;;;;;;20.35;14.15;;;12.90;99.90;;;;;;20752957;28;20555;-42
2024/03/23 12:30:32;;;;;;;26.08;14.52;;;13.10;99.90;;;;;;20761735;28;20034;-41
2024/03/23 12:40:34;;;;;;;24.60;17.15;;;13.00;99.90;;;;;;20803232;28;20037;-45
2024/03/23 12:50:36;;;;;;;24.60;16.48;;;12.50;99.90;;;;;;20801721;28;20041;-43
2024/03/23 13:00:38;;;;;;;29.75;18.23;;;11.70;99.90;;;;;;20817790;28;20029;-41
2024/03/23 13:10:39;;;;;;;32.28;18.40;;;10.70;99.90;;;;;;20790728;28;20187;-41
2024/03/23 13:20:41;;;;;;;29.95;18.48;;;10.40;99.90;;;;;;20818091;28;20045;-41
2024/03/23 13:30:54;;;;;;;29.95;18.85;;;9.60;99.90;;;;;;20819845;28;20080;-40
2024/03/23 13:40:58;;;;;;;33.53;19.15;;;9.00;99.90;;;;;;20901572;28;20033;-41
2024/03/23 13:51:04;;;;;;;32.72;18.70;;;8.80;99.90;;;;;;20864140;28;20040;-42
2024/03/23 14:01:07;;;;;;;26.65;17.58;;;8.70;99.90;;;;;;20838955;28;20045;-41
2024/03/23 14:11:10;;;;;;;22.95;13.68;;;8.90;99.90;;;;;;20853507;28;20036;-41
2024/03/23 14:21:12;;;;;;;24.25;12.55;;;8.90;99.90;;;;;;20855850;28;20033;-41
2024/03/23 14:31:14;;;;;;;19.88;12.75;;;9.20;99.90;;;;;;20850822;28;20493;-41
2024/03/23 14:41:16;;;;;;;24.75;14.63;;;8.90;99.90;;;;;;20883491;28;20463;-43
2024/03/23 14:51:18;;;;;;;33.72;18.10;;;8.70;99.90;;;;;;20914935;28;20032;-42
2024/03/23 15:01:20;;;;;;;31.05;18.83;;;8.40;99.90;;;;;;20863198;28;20071;-40
2024/03/23 15:11:23;;;;;;;42.67;22.85;;;7.90;99.90;;;;;;20860982;28;20034;-40
2024/03/23 15:21:24;;;;;;;35.45;20.73;;;7.90;99.90;;;;;;20843224;28;20361;-41
2024/03/23 15:31:30;;;;;;;35.35;21.15;;;7.90;99.90;;;;;;20830266;28;20650;-43
2024/03/23 15:41:35;;;;;;;32.13;20.13;;;8.00;99.90;;;;;;20886874;28;20549;-41
2024/03/23 15:51:39;;;;;;;30.38;18.70;;;8.10;99.90;;;;;;20852238;28;20091;-40
2024/03/23 16:01:43;;;;;;;27.88;17.27;;;8.20;99.90;;;;;;20837438;28;20042;-42
2024/03/23 16:11:45;;;;;;;28.52;16.92;;;8.30;99.90;;;;;;20840404;28;20119;-42
2024/03/23 16:21:47;;;;;;;26.15;16.35;;;8.40;99.90;;;;;;20839470;28;20126;-40
2024/03/23 16:31:49;;;;;;;30.65;18.17;;;8.40;99.90;;;;;;20868170;28;20047;-43
2024/03/23 16:41:51;;;;;;;24.88;15.15;;;8.50;99.90;;;;;;20843164;28;20052;-44
2024/03/23 16:51:53;;;;;;;22.40;14.85;;;8.40;99.90;;;;;;20792432;28;20034;-42
2024/03/23 17:01:55;;;;;;;27.98;16.45;;;8.50;99.90;;;;;;20761456;28;20022;-42
2024/03/23 17:11:56;;;;;;;30.85;18.73;;;8.20;99.90;;;;;;20505521;28;20573;-43
2024/03/23 17:21:59;;;;;;;20.35;13.10;;;7.60;99.90;;;;;;20547889;28;20635;-40
2024/03/23 17:32:00;;;;;;;25.08;14.45;;;7.40;99.90;;;;;;20485933;28;20051;-40
2024/03/23 17:42:02;;;;;;;22.17;12.98;;;6.70;99.90;;;;;;20767342;28;20107;-41
2024/03/23 17:52:12;;;;;;;16.73;10.20;;;6.10;99.90;;;;;;20829375;28;20029;-40
2024/03/23 18:02:17;;;;;;;18.55;9.45;;;6.20;99.90;;;;;;20836518;28;20033;-40
2024/03/23 18:12:20;;;;;;;14.57;8.00;;;5.50;99.90;;;;;;20833851;28;20087;-42
2024/03/23 18:22:23;;;;;;;13.43;7.85;;;5.20;99.90;;;;;;20833445;28;20040;-40
2024/03/23 18:32:25;;;;;;;15.23;8.70;;;4.90;99.90;;;;;;20847440;28;20464;-40
2024/03/23 18:42:26;;;;;;;14.45;7.85;;;4.50;99.90;;;;;;20914743;28;20033;-40
2024/03/23 18:52:28;;;;;;;14.43;8.40;;;4.20;99.90;;;;;;20807907;28;20045;-40
2024/03/23 19:02:30;;;;;;;18.17;10.88;;;4.20;99.90;;;;;;20795731;28;20107;-41
2024/03/23 19:12:32;;;;;;;22.27;12.23;;;4.20;99.90;;;;;;20856116;28;20038;-40
2024/03/23 19:22:34;;;;;;;17.88;9.27;;;4.60;99.90;;;;;;20775115;28;20034;-40
2024/03/23 19:32:36;;;;;;;15.93;8.98;;;4.90;99.90;;;;;;20844226;28;20106;-40
2024/03/23 19:42:38;;;;;;;16.88;9.98;;;4.60;99.90;;;;;;20909805;28;20033;-42
2024/03/23 19:52:40;;;;;;;25.95;14.35;;;5.00;99.90;;;;;;20844271;28;20025;-41
2024/03/23 20:02:48;;;;;;;25.42;14.65;;;5.30;99.90;;;;;;20807519;28;20026;-41
2024/03/23 20:12:51;;;;;;;25.95;12.43;;;5.30;99.90;;;;;;20813041;28;20033;-41
2024/03/23 20:22:53;;;;;;;13.80;8.40;;;5.10;99.90;;;;;;20823236;28;20034;-42
2024/03/23 20:32:59;;;;;;;13.70;7.15;;;4.80;99.90;;;;;;20813054;28;20174;-40
2024/03/23 20:53:41;;;;;;;3.03;1.70;;;4.70;99.90;;;;;;20649294;23;20578;-41
2024/03/23 21:03:44;;;;;;;2.28;1.10;;;4.70;99.90;;;;;;20382316;29;20040;-39
2024/03/23 21:13:48;;;;;;;3.15;0.90;;;4.60;99.90;;;;;;20320926;29;20036;-42
2024/03/23 21:23:50;;;;;;;1.73;0.80;;;4.50;99.90;;;;;;20399495;29;20043;-41
2024/03/23 21:33:55;;;;;;;1.10;0.40;;;4.40;99.90;;;;;;20425789;29;20391;-40
2024/03/23 21:43:57;;;;;;;1.80;0.52;;;4.30;99.90;;;;;;20353109;29;20068;-41
2024/03/23 21:54:00;;;;;;;1.10;0.50;;;4.20;99.90;;;;;;20377152;29;20043;-41
2024/03/23 22:04:03;;;;;;;0.57;0.20;;;4.20;99.90;;;;;;20433209;29;20036;-40
2024/03/23 22:14:05;;;;;;;2.13;0.28;;;4.00;99.90;;;;;;20418504;29;20071;-40
2024/03/23 22:24:09;;;;;;;0.32;0.17;;;3.90;99.90;;;;;;20385115;29;20047;-40
2024/03/23 22:34:11;;;;;;;0.85;0.30;;;3.80;99.90;;;;;;20397204;29;20095;-40
2024/03/23 22:44:14;;;;;;;0.40;0.30;;;3.60;99.90;;;;;;20354847;29;20376;-40
2024/03/23 22:54:17;;;;;;;1.00;0.17;;;3.60;99.90;;;;;;20374510;29;20137;-39
2024/03/23 23:04:20;;;;;;;0.60;0.20;;;3.60;99.90;;;;;;20375049;29;20130;-39
2024/03/23 23:14:23;;;;;;;0.82;0.30;;;3.50;99.90;;;;;;20418509;29;20383;-39
2024/03/23 23:24:25;;;;;;;0.43;0.20;;;3.40;99.90;;;;;;20427895;29;20098;-39
2024/03/23 23:34:26;;;;;;;0.98;0.20;;;3.50;99.40;;;;;;20394405;29;20079;-39
2024/03/23 23:44:29;;;;;;;0.30;0.13;;;3.60;99.10;;;;;;20348557;29;20088;-39
2024/03/23 23:54:34;;;;;;;0.65;0.13;;;3.60;99.00;;;;;;20383767;29;20484;-39
